createdAt,value
2018-12-12T00:02:16.330Z,4.66
2018-12-12T00:04:43.775Z,4.63
2018-12-12T00:07:11.517Z,4.64
2018-12-12T00:09:38.966Z,4.64
2018-12-12T00:12:06.413Z,4.63
2018-12-12T00:14:33.830Z,4.62
2018-12-12T00:17:01.297Z,4.61
2018-12-12T00:19:29.508Z,4.60
2018-12-12T00:21:56.957Z,4.61
2018-12-12T00:24:24.424Z,4.60
2018-12-12T00:26:51.847Z,4.59
2018-12-12T00:29:19.523Z,4.60
2018-12-12T00:31:51.134Z,4.58
2018-12-12T00:34:18.947Z,4.55
2018-12-12T00:36:46.415Z,4.54
2018-12-12T00:39:13.900Z,4.54
2018-12-12T00:41:41.457Z,4.53
2018-12-12T00:44:08.910Z,4.52
2018-12-12T00:46:36.657Z,4.53
2018-12-12T00:49:04.275Z,4.54
2018-12-12T00:51:32.079Z,4.53
2018-12-12T00:53:59.542Z,4.52
2018-12-12T00:56:26.974Z,4.51
2018-12-12T00:58:54.537Z,4.50
2018-12-12T01:01:21.967Z,4.50
2018-12-12T01:03:49.421Z,4.50
2018-12-12T01:06:16.930Z,4.49
2018-12-12T01:08:44.445Z,4.48
2018-12-12T01:11:17.831Z,4.46
2018-12-12T01:13:45.285Z,4.45
2018-12-12T01:16:12.718Z,4.44
2018-12-12T01:18:40.162Z,4.45
2018-12-12T01:21:07.606Z,4.44
2018-12-12T01:23:35.089Z,4.43
2018-12-12T01:26:02.499Z,4.45
2018-12-12T01:28:29.948Z,4.48
2018-12-12T01:30:57.409Z,4.48
2018-12-12T01:33:24.977Z,4.50
2018-12-12T01:35:52.434Z,4.52
2018-12-12T01:38:19.886Z,4.54
2018-12-12T01:40:47.328Z,4.54
2018-12-12T01:43:14.737Z,4.55
2018-12-12T01:45:42.184Z,4.56
2018-12-12T01:48:09.616Z,4.56
2018-12-12T01:50:37.062Z,4.59
2018-12-12T01:55:38.389Z,4.62
2018-12-12T01:58:05.894Z,4.63
2018-12-12T02:00:33.425Z,4.63
2018-12-12T02:03:00.826Z,4.63
2018-12-12T02:05:28.276Z,4.65
2018-12-12T02:07:55.873Z,4.65
2018-12-12T02:10:23.929Z,4.67
2018-12-12T02:13:03.133Z,4.69
2018-12-12T02:15:30.561Z,4.72
2018-12-12T02:17:58.104Z,4.74
2018-12-12T02:20:25.523Z,4.75
2018-12-12T02:22:52.965Z,4.75
2018-12-12T02:25:25.523Z,4.76
2018-12-12T02:27:53.039Z,4.74
2018-12-12T02:30:20.476Z,4.72
2018-12-12T02:32:47.920Z,4.72
2018-12-12T02:35:15.338Z,4.73
2018-12-12T02:37:42.797Z,4.73
2018-12-12T02:40:10.494Z,4.75
2018-12-12T02:42:37.941Z,4.75
2018-12-12T02:45:05.434Z,4.79
2018-12-12T02:47:32.877Z,4.81
2018-12-12T02:50:00.377Z,4.83
2018-12-12T02:52:30.343Z,4.85
2018-12-12T02:54:57.804Z,4.86
2018-12-12T02:57:25.580Z,4.88
2018-12-12T02:59:53.106Z,4.91
2018-12-12T03:02:20.531Z,4.90
2018-12-12T03:04:48.166Z,4.87
2018-12-12T03:07:15.593Z,4.87
2018-12-12T03:09:43.055Z,4.90
2018-12-12T03:12:10.490Z,4.92
2018-12-12T03:14:37.914Z,4.94
2018-12-12T03:17:05.364Z,4.96
2018-12-12T03:19:32.857Z,4.98
2018-12-12T03:22:00.284Z,4.98
2018-12-12T03:24:27.981Z,5.00
2018-12-12T03:26:55.612Z,5.03
2018-12-12T03:29:23.046Z,5.04
2018-12-12T03:31:50.483Z,5.04
2018-12-12T03:34:17.906Z,5.03
2018-12-12T03:36:45.370Z,5.03
2018-12-12T03:39:12.890Z,5.04
2018-12-12T03:41:40.423Z,5.04
2018-12-12T03:44:07.850Z,5.06
2018-12-12T03:46:35.450Z,5.07
2018-12-12T03:49:02.900Z,5.08
2018-12-12T03:51:30.354Z,5.11
2018-12-12T03:53:57.763Z,5.12
2018-12-12T03:56:25.194Z,5.10
2018-12-12T03:58:52.632Z,5.06
2018-12-12T04:01:20.067Z,5.05
2018-12-12T04:03:47.496Z,5.08
2018-12-12T04:06:14.923Z,5.10
2018-12-12T04:08:42.368Z,5.11
2018-12-12T04:11:09.788Z,5.13
2018-12-12T04:13:37.213Z,5.13
2018-12-12T04:16:04.743Z,5.13
2018-12-12T04:18:32.492Z,5.14
2018-12-12T04:20:59.898Z,5.14
2018-12-12T04:23:27.345Z,5.16
2018-12-12T04:25:54.874Z,5.08
2018-12-12T04:28:22.334Z,5.03
2018-12-12T04:30:49.754Z,5.02
2018-12-12T04:33:17.178Z,5.03
2018-12-12T04:35:44.620Z,5.00
2018-12-12T04:38:12.075Z,5.01
2018-12-12T04:40:39.479Z,5.00
2018-12-12T04:43:06.971Z,5.01
2018-12-12T04:45:34.409Z,5.02
2018-12-12T04:48:02.017Z,5.05
2018-12-12T04:50:29.610Z,5.04
2018-12-12T04:52:57.142Z,5.05
2018-12-12T04:55:24.576Z,5.07
2018-12-12T04:57:51.997Z,5.07
2018-12-12T05:00:19.440Z,5.06
2018-12-12T05:02:47.466Z,5.04
2018-12-12T05:05:14.926Z,5.05
2018-12-12T05:07:42.356Z,5.08
2018-12-12T05:10:09.816Z,5.07
2018-12-12T05:12:37.243Z,5.00
2018-12-12T05:15:05.089Z,4.92
2018-12-12T05:17:32.548Z,4.92
2018-12-12T05:20:00.176Z,4.95
2018-12-12T05:22:27.615Z,4.98
2018-12-12T05:24:55.061Z,5.00
2018-12-12T05:27:22.476Z,5.02
2018-12-12T05:29:49.916Z,5.02
2018-12-12T05:32:17.358Z,5.03
2018-12-12T05:37:18.641Z,5.02
2018-12-12T05:39:46.112Z,5.04
2018-12-12T05:42:13.567Z,5.05
2018-12-12T05:44:41.017Z,5.08
2018-12-12T05:47:08.455Z,5.08
2018-12-12T05:49:35.874Z,5.04
2018-12-12T06:10:10.908Z,5.02
2018-12-12T06:12:38.395Z,5.04
2018-12-12T06:15:07.274Z,5.07
2018-12-12T06:17:35.039Z,5.07
2018-12-12T06:20:02.835Z,5.10
2018-12-12T06:22:30.590Z,5.11
2018-12-12T06:24:58.000Z,5.12
2018-12-12T06:27:25.465Z,5.09
2018-12-12T06:29:52.930Z,5.11
2018-12-12T06:32:20.426Z,5.09
2018-12-12T06:34:47.854Z,5.09
2018-12-12T06:37:15.300Z,5.11
2018-12-12T06:39:42.747Z,5.07
2018-12-12T06:42:10.166Z,5.00
2018-12-12T06:44:37.953Z,4.91
2018-12-12T06:47:05.380Z,4.93
2018-12-12T06:49:37.774Z,4.94
2018-12-12T06:52:05.325Z,4.93
2018-12-12T06:54:32.782Z,4.94
2018-12-12T06:57:00.309Z,4.93
2018-12-12T06:59:27.849Z,4.87
2018-12-12T07:01:55.426Z,4.72
2018-12-12T07:04:22.874Z,4.68
2018-12-12T07:06:50.319Z,4.67
2018-12-12T07:09:17.750Z,4.55
2018-12-12T07:11:50.656Z,4.49
2018-12-12T07:14:18.148Z,4.42
2018-12-12T07:16:45.608Z,4.34
2018-12-12T07:19:13.063Z,4.32
2018-12-12T07:21:40.514Z,4.37
2018-12-12T07:24:08.074Z,4.40
2018-12-12T07:26:35.512Z,4.40
2018-12-12T07:29:03.006Z,4.37
2018-12-12T07:31:30.458Z,4.37
2018-12-12T07:34:00.873Z,4.44
2018-12-12T07:36:27.523Z,4.48
2018-12-12T07:38:54.963Z,4.49
2018-12-12T07:41:22.613Z,4.36
2018-12-12T07:43:50.283Z,4.34
2018-12-12T07:46:19.053Z,4.39
2018-12-12T07:48:46.476Z,4.43
2018-12-12T07:51:13.930Z,4.49
2018-12-12T07:53:41.682Z,4.58
2018-12-12T07:56:09.116Z,4.64
2018-12-12T07:58:36.541Z,4.60
2018-12-12T08:01:03.998Z,4.62
2018-12-12T08:03:31.425Z,4.68
2018-12-12T08:05:58.859Z,4.70
2018-12-12T08:08:26.333Z,4.74
2018-12-12T08:10:53.756Z,4.78
2018-12-12T08:13:21.208Z,4.79
2018-12-12T08:15:48.735Z,4.81
2018-12-12T08:18:16.195Z,4.79
2018-12-12T08:20:43.627Z,4.82
2018-12-12T08:23:11.337Z,4.84
2018-12-12T08:25:39.165Z,4.91
2018-12-12T08:28:06.625Z,4.90
2018-12-12T08:30:34.051Z,4.84
2018-12-12T08:33:01.494Z,4.79
2018-12-12T08:35:28.924Z,4.84
2018-12-12T08:37:56.466Z,4.88
2018-12-12T08:40:23.902Z,4.94
2018-12-12T08:42:51.350Z,5.03
2018-12-12T08:45:20.575Z,5.06
2018-12-12T08:47:48.014Z,5.09
2018-12-12T08:50:15.467Z,5.13
2018-12-12T08:52:43.054Z,5.07
2018-12-12T08:55:10.659Z,5.06
2018-12-12T08:57:38.162Z,5.11
2018-12-12T09:00:06.053Z,5.11
2018-12-12T09:02:33.473Z,5.16
2018-12-12T09:05:01.003Z,5.23
2018-12-12T09:07:28.431Z,5.24
2018-12-12T09:09:55.880Z,5.27
2018-12-12T09:12:26.877Z,5.26
2018-12-12T09:14:54.405Z,5.29
2018-12-12T09:17:21.937Z,5.34
2018-12-12T09:19:49.375Z,5.38
2018-12-12T09:22:16.798Z,5.40
2018-12-12T09:24:44.328Z,5.40
2018-12-12T09:27:11.742Z,5.36
2018-12-12T09:29:39.208Z,5.36
2018-12-12T09:32:06.618Z,5.35
2018-12-12T09:34:34.099Z,5.33
2018-12-12T09:37:01.537Z,5.29
2018-12-12T09:39:28.975Z,5.32
2018-12-12T09:41:56.482Z,5.40
2018-12-12T09:44:24.384Z,5.45
2018-12-12T09:46:51.842Z,5.52
2018-12-12T09:49:19.279Z,5.57
2018-12-12T09:51:46.725Z,5.60
2018-12-12T09:54:14.148Z,5.60
2018-12-12T09:56:41.593Z,5.63
2018-12-12T09:59:09.098Z,5.67
2018-12-12T10:01:36.560Z,5.68
2018-12-12T10:04:04.080Z,5.71
2018-12-12T10:06:31.514Z,5.76
2018-12-12T10:08:58.942Z,5.80
2018-12-12T10:11:26.370Z,5.83
2018-12-12T10:13:53.980Z,5.79
2018-12-12T10:16:21.433Z,5.82
2018-12-12T10:18:48.867Z,5.84
2018-12-12T10:21:16.317Z,5.86
2018-12-12T10:23:43.741Z,5.89
2018-12-12T10:26:11.169Z,5.89
2018-12-12T10:28:38.623Z,5.90
2018-12-12T10:31:06.058Z,5.94
2018-12-12T10:33:37.655Z,5.96
2018-12-12T10:36:02.952Z,5.99
2018-12-12T10:38:30.391Z,6.02
2018-12-12T10:40:57.802Z,6.02
2018-12-12T10:43:25.262Z,6.01
2018-12-12T10:45:55.363Z,6.00
2018-12-12T10:48:22.833Z,6.00
2018-12-12T10:50:50.261Z,5.97
2018-12-12T10:53:17.863Z,5.95
2018-12-12T10:55:45.304Z,5.97
2018-12-12T10:58:12.738Z,6.00
2018-12-12T11:00:40.160Z,5.99
2018-12-12T11:03:13.105Z,6.04
2018-12-12T11:05:40.559Z,6.10
2018-12-12T11:08:07.970Z,6.16
2018-12-12T11:10:35.890Z,6.22
2018-12-12T11:13:03.317Z,6.28
2018-12-12T11:15:30.770Z,6.27
2018-12-12T11:17:58.193Z,6.29
2018-12-12T11:20:25.624Z,6.22
2018-12-12T11:22:53.044Z,6.20
2018-12-12T11:25:20.504Z,6.24
2018-12-12T11:27:47.934Z,6.29
2018-12-12T11:30:15.403Z,6.24
2018-12-12T11:32:42.917Z,6.21
2018-12-12T11:35:10.433Z,6.25
2018-12-12T11:37:37.939Z,6.28
2018-12-12T11:40:06.247Z,6.28
2018-12-12T11:42:33.713Z,6.28
2018-12-12T11:45:01.269Z,6.27
2018-12-12T11:47:28.803Z,6.28
2018-12-12T11:49:56.223Z,6.34
2018-12-12T11:52:23.676Z,6.39
2018-12-12T11:54:51.470Z,6.40
2018-12-12T11:57:19.195Z,6.40
2018-12-12T11:59:46.625Z,6.41
2018-12-12T12:02:14.074Z,6.43
2018-12-12T12:04:41.519Z,6.44
2018-12-12T12:07:08.939Z,6.44
2018-12-12T12:09:36.376Z,6.44
2018-12-12T12:12:03.830Z,6.44
2018-12-12T12:14:31.376Z,6.41
2018-12-12T12:16:59.023Z,6.41
2018-12-12T12:19:26.451Z,6.44
2018-12-12T12:21:54.232Z,6.45
2018-12-12T12:24:21.669Z,6.46
2018-12-12T12:26:49.990Z,6.48
2018-12-12T12:29:17.626Z,6.52
2018-12-12T12:31:45.145Z,6.54
2018-12-12T12:34:12.575Z,6.54
2018-12-12T12:36:40.015Z,6.55
2018-12-12T12:39:07.464Z,6.57
2018-12-12T12:41:34.896Z,6.56
2018-12-12T12:44:02.317Z,6.57
2018-12-12T12:46:31.570Z,6.63
2018-12-12T12:48:58.990Z,6.69
2018-12-12T12:51:26.418Z,6.71
2018-12-12T12:53:53.835Z,6.73
2018-12-12T12:56:21.306Z,6.78
2018-12-12T12:58:48.724Z,6.80
2018-12-12T13:01:16.167Z,6.84
2018-12-12T13:03:43.605Z,6.87
2018-12-12T13:06:11.060Z,6.73
2018-12-12T13:08:38.486Z,6.69
2018-12-12T13:11:05.933Z,6.69
2018-12-12T13:13:33.430Z,6.72
2018-12-12T13:16:01.000Z,6.75
2018-12-12T13:18:28.403Z,6.74
2018-12-12T13:20:55.856Z,6.72
2018-12-12T13:23:23.302Z,6.73
2018-12-12T13:25:50.788Z,6.74
2018-12-12T13:28:18.206Z,6.77
2018-12-12T13:30:45.645Z,6.78
2018-12-12T13:33:13.059Z,6.78
2018-12-12T13:35:40.526Z,6.80
2018-12-12T13:38:08.046Z,6.80
2018-12-12T13:40:35.484Z,6.77
2018-12-12T13:43:03.169Z,6.78
2018-12-12T13:45:31.390Z,6.74
2018-12-12T13:47:58.816Z,6.72
2018-12-12T13:50:28.210Z,6.68
2018-12-12T13:52:55.684Z,6.63
2018-12-12T13:55:24.563Z,6.63
2018-12-12T13:57:52.311Z,6.62
2018-12-12T14:00:20.990Z,6.58
2018-12-12T14:02:48.395Z,6.60
2018-12-12T14:05:15.851Z,6.61
2018-12-12T14:07:43.276Z,6.60
2018-12-12T14:10:10.725Z,6.56
2018-12-12T14:12:38.199Z,6.51
2018-12-12T14:15:06.107Z,6.49
2018-12-12T14:17:33.532Z,6.47
2018-12-12T14:20:00.974Z,6.46
2018-12-12T14:22:28.467Z,6.45
2018-12-12T14:24:55.926Z,6.42
2018-12-12T14:27:23.359Z,6.39
2018-12-12T14:29:50.804Z,6.40
2018-12-12T14:32:18.486Z,6.40
2018-12-12T14:34:45.957Z,6.36
2018-12-12T14:37:13.375Z,6.40
2018-12-12T14:39:40.825Z,6.44
2018-12-12T14:42:08.251Z,6.41
2018-12-12T14:44:35.727Z,6.37
2018-12-12T14:47:03.364Z,6.36
2018-12-12T14:49:33.759Z,6.36
2018-12-12T14:52:03.249Z,6.36
2018-12-12T14:54:30.686Z,6.32
2018-12-12T14:56:58.144Z,6.28
2018-12-12T14:59:25.603Z,6.28
2018-12-12T15:01:53.123Z,6.27
2018-12-12T15:04:23.397Z,6.29
2018-12-12T15:06:51.017Z,6.29
2018-12-12T15:09:18.532Z,6.30
2018-12-12T15:11:46.229Z,6.26
2018-12-12T15:14:13.667Z,6.24
2018-12-12T15:16:49.945Z,6.22
2018-12-12T15:19:22.256Z,6.22
2018-12-12T15:21:49.894Z,6.22
2018-12-12T15:24:17.327Z,6.22
2018-12-12T15:26:44.791Z,6.22
2018-12-12T15:29:12.265Z,6.22
2018-12-12T15:34:51.729Z,6.22
2018-12-12T15:37:19.262Z,6.22
2018-12-12T15:39:46.707Z,6.20
2018-12-12T15:42:14.189Z,6.15
2018-12-12T15:44:41.626Z,6.15
2018-12-12T15:47:09.034Z,6.15
2018-12-12T15:49:36.594Z,6.13
2018-12-12T15:52:15.813Z,6.12
2018-12-12T15:54:48.086Z,6.12
2018-12-12T15:57:15.521Z,6.08
2018-12-12T15:59:42.960Z,6.05
2018-12-12T16:02:10.397Z,5.99
2018-12-12T16:04:37.929Z,5.95
2018-12-12T16:07:05.359Z,5.93
2018-12-12T16:09:32.813Z,5.93
2018-12-12T16:12:00.246Z,5.91
2018-12-12T16:14:27.659Z,5.93
2018-12-12T16:16:55.186Z,5.90
2018-12-12T16:19:22.610Z,5.91
2018-12-12T16:21:53.205Z,5.92
2018-12-12T16:24:20.632Z,5.94
2018-12-12T16:26:48.234Z,5.92
2018-12-12T16:29:15.643Z,5.94
2018-12-12T16:31:45.728Z,5.96
2018-12-12T16:34:13.162Z,5.95
2018-12-12T16:36:40.626Z,5.96
2018-12-12T16:39:08.202Z,5.95
2018-12-12T16:41:37.468Z,5.89
2018-12-12T16:44:04.905Z,5.87
2018-12-12T16:46:33.271Z,5.89
2018-12-12T16:49:03.632Z,5.87
2018-12-12T16:51:31.103Z,5.84
2018-12-12T16:53:58.666Z,5.83
2018-12-12T16:56:26.451Z,5.79
2018-12-12T16:58:54.014Z,5.73
2018-12-12T17:01:21.439Z,5.71
2018-12-12T17:03:50.833Z,5.74
2018-12-12T17:06:22.107Z,5.74
2018-12-12T17:08:49.542Z,5.70
2018-12-12T17:11:20.929Z,5.71
2018-12-12T17:13:49.430Z,5.66
2018-12-12T17:16:21.832Z,5.62
2018-12-12T17:18:49.439Z,5.56
2018-12-12T17:21:17.201Z,5.51
2018-12-12T17:23:44.735Z,5.47
2018-12-12T17:26:12.204Z,5.43
2018-12-12T17:28:39.687Z,5.39
2018-12-12T17:33:42.015Z,5.33
2018-12-12T17:36:10.007Z,5.27
2018-12-12T17:38:37.507Z,5.21
2018-12-12T17:41:09.563Z,5.15
2018-12-12T17:43:36.999Z,5.12
2018-12-12T17:46:07.472Z,5.07
2018-12-12T17:48:35.062Z,5.04
2018-12-12T17:53:51.165Z,5.00
2018-12-12T17:56:18.593Z,4.94
2018-12-12T18:01:23.457Z,4.85
2018-12-12T18:03:50.883Z,4.83
2018-12-12T18:06:18.346Z,4.81
2018-12-12T18:08:45.773Z,4.77
2018-12-12T18:11:13.240Z,4.73
2018-12-12T18:13:44.701Z,4.72
2018-12-12T18:16:12.148Z,4.69
2018-12-12T18:18:39.724Z,4.69
2018-12-12T18:21:07.197Z,4.66
2018-12-12T18:23:38.719Z,4.65
2018-12-12T18:26:06.391Z,4.60
2018-12-12T18:28:33.856Z,4.55
2018-12-12T18:31:01.643Z,4.56
2018-12-12T18:33:35.431Z,4.55
2018-12-12T18:36:03.037Z,4.53
2018-12-12T18:38:30.703Z,4.51
2018-12-12T18:41:00.140Z,4.50
2018-12-12T18:43:27.572Z,4.48
2018-12-12T18:45:55.180Z,4.45
2018-12-12T18:48:22.817Z,4.41
2018-12-12T18:55:02.216Z,4.36
2018-12-12T18:57:29.796Z,4.36
2018-12-12T18:59:57.267Z,4.35
2018-12-12T19:05:01.417Z,4.34
2018-12-12T19:07:29.214Z,4.32
2018-12-12T19:09:56.680Z,4.30
2018-12-12T19:12:31.153Z,4.30
2018-12-12T19:15:01.144Z,4.28
2018-12-12T19:17:28.840Z,4.26
2018-12-12T19:19:56.323Z,4.24
2018-12-12T19:22:23.838Z,4.23
2018-12-12T19:24:51.370Z,4.21
2018-12-12T19:27:19.258Z,4.20
2018-12-12T19:29:48.809Z,4.19
2018-12-12T19:32:16.633Z,4.17
2018-12-12T19:34:51.014Z,4.16
2018-12-12T19:37:33.133Z,4.13
2018-12-12T19:40:00.581Z,4.09
2018-12-12T19:42:32.070Z,4.06
2018-12-12T19:44:59.756Z,4.02
2018-12-12T19:47:27.280Z,3.99
2018-12-12T19:49:54.836Z,3.94
2018-12-12T19:55:16.450Z,3.89
2018-12-12T19:57:49.747Z,3.90
2018-12-12T20:00:17.298Z,3.90
2018-12-12T20:02:48.796Z,3.89
2018-12-12T20:05:16.311Z,3.87
2018-12-12T20:07:43.779Z,3.85
2018-12-12T20:10:11.340Z,3.85
2018-12-12T20:12:47.482Z,3.84
2018-12-12T20:15:23.039Z,3.81
2018-12-12T20:17:50.504Z,3.80
2018-12-12T20:20:20.898Z,3.77
2018-12-12T20:22:50.431Z,3.74
2018-12-12T20:25:17.889Z,3.73
2018-12-12T20:27:45.334Z,3.72
2018-12-12T20:30:12.738Z,3.70
2018-12-12T20:32:45.095Z,3.66
2018-12-12T20:35:12.760Z,3.62
2018-12-12T20:37:40.356Z,3.62
2018-12-12T20:40:08.290Z,3.61
2018-12-12T20:42:35.732Z,3.59
2018-12-12T20:45:03.513Z,3.56
2018-12-12T20:47:30.970Z,3.57
2018-12-12T20:50:04.116Z,3.52
2018-12-12T20:52:31.601Z,3.51
2018-12-12T20:55:03.067Z,3.51
2018-12-12T20:57:30.540Z,3.51
2018-12-12T20:59:58.881Z,3.50
2018-12-12T21:02:26.448Z,3.49
2018-12-12T21:04:53.925Z,3.49
2018-12-12T21:07:21.390Z,3.49
2018-12-12T21:09:48.896Z,3.49
2018-12-12T21:12:16.515Z,3.48
2018-12-12T21:14:43.957Z,3.47
2018-12-12T21:17:11.479Z,3.48
2018-12-12T21:19:39.085Z,3.53
2018-12-12T21:22:06.523Z,3.60
2018-12-12T21:24:38.879Z,3.68
2018-12-12T21:27:06.665Z,3.74
2018-12-12T21:29:34.203Z,3.82
2018-12-12T21:32:01.642Z,3.87
2018-12-12T21:34:29.123Z,3.90
2018-12-12T21:36:56.778Z,3.94
2018-12-12T21:39:24.262Z,3.98
2018-12-12T21:41:56.559Z,4.00
2018-12-12T21:44:24.021Z,4.02
2018-12-12T21:46:51.459Z,4.04
2018-12-12T21:49:19.044Z,4.06
2018-12-12T21:51:46.643Z,4.09
2018-12-12T21:54:14.078Z,4.14
2018-12-12T21:56:41.538Z,4.16
2018-12-12T21:59:09.093Z,4.20
2018-12-12T22:01:36.525Z,4.24
2018-12-12T22:04:10.132Z,4.27
2018-12-12T22:06:37.651Z,4.29
2018-12-12T22:09:07.662Z,4.32
2018-12-12T22:11:35.211Z,4.31
2018-12-12T22:14:02.674Z,4.35
2018-12-12T22:16:30.321Z,4.36
2018-12-12T22:18:57.782Z,4.38
2018-12-12T22:21:25.562Z,4.40
2018-12-12T22:23:57.138Z,4.41
2018-12-12T22:26:30.411Z,4.41
2018-12-12T22:29:05.618Z,4.42
2018-12-12T22:31:33.109Z,4.44
2018-12-12T22:34:00.656Z,4.45
2018-12-12T22:36:28.268Z,4.45
2018-12-12T22:38:55.738Z,4.45
2018-12-12T22:41:23.188Z,4.46
2018-12-12T22:43:50.640Z,4.48
2018-12-12T22:46:18.151Z,4.52
2018-12-12T22:48:45.711Z,4.52
2018-12-12T22:51:13.268Z,4.54
2018-12-12T22:53:40.722Z,4.54
2018-12-12T22:56:27.716Z,4.54
2018-12-12T23:01:28.048Z,4.53
2018-12-12T23:04:01.501Z,4.53
2018-12-12T23:06:28.922Z,4.53
2018-12-12T23:08:57.599Z,4.54
2018-12-12T23:11:25.464Z,4.55
2018-12-12T23:13:53.047Z,4.54
2018-12-12T23:16:25.690Z,4.54
2018-12-12T23:18:53.280Z,4.58
2018-12-12T23:21:20.767Z,4.59
2018-12-12T23:23:48.193Z,4.61
2018-12-12T23:26:15.608Z,4.62
2018-12-12T23:28:43.900Z,4.62
2018-12-12T23:31:11.331Z,4.64
2018-12-12T23:33:38.750Z,4.59
2018-12-12T23:36:10.278Z,4.53
2018-12-12T23:38:45.549Z,4.48
2018-12-12T23:41:12.991Z,4.43
2018-12-12T23:43:40.414Z,4.40
2018-12-12T23:46:07.864Z,4.39
2018-12-12T23:48:35.312Z,4.40
2018-12-12T23:51:07.604Z,4.33
2018-12-12T23:53:35.117Z,4.27
2018-12-12T23:56:02.558Z,4.20
2018-12-12T23:58:34.012Z,4.14
